Time;durP1;ratioP1;P1;durP2;ratioP2;P2;SDS_P1;SDS_P2;PMS_P1;PMS_P2;Temp;Humidity;BMP_temperature;BMP_pressure;BME280_temperature;BME280_humidity;BME280_pressure;Samples;Min_cycle;Max_cycle;Signal;HPM_P1;HPM_P2
2023/12/08 00:01:35;;;;;;;11.03;7.30;;;;;;;0.25;100.00;146309.19;4962097;28;20230;-57
2023/12/08 00:04:01;;;;;;;19.50;9.97;;;;;;;0.26;100.00;146312.94;4964908;28;20222;-56
2023/12/08 00:06:30;;;;;;;14.90;8.80;;;;;;;0.25;100.00;146310.47;4964009;28;20217;-56
2023/12/08 00:08:56;;;;;;;18.13;10.17;;;;;;;0.26;100.00;146311.66;4959903;28;20324;-55
2023/12/08 00:11:23;;;;;;;14.87;8.70;;;;;;;0.28;100.00;146316.63;4963023;28;20237;-56
2023/12/08 00:13:50;;;;;;;15.43;9.43;;;;;;;0.25;100.00;146309.19;4964181;28;20221;-56
2023/12/08 00:16:17;;;;;;;18.10;9.83;;;;;;;0.25;100.00;146309.19;4965245;28;20302;-56
2023/12/08 00:18:43;;;;;;;18.43;10.40;;;;;;;0.28;100.00;146316.63;4963857;28;20224;-54
2023/12/08 00:21:10;;;;;;;18.53;10.53;;;;;;;0.24;100.00;146307.97;4965464;28;20602;-55
2023/12/08 00:23:38;;;;;;;16.50;10.23;;;;;;;0.28;100.00;146316.63;4957907;28;20229;-56
2023/12/08 00:26:05;;;;;;;17.10;10.30;;;;;;;0.30;100.00;146321.56;4959630;28;20240;-56
2023/12/08 00:28:31;;;;;;;15.73;10.37;;;;;;;0.33;100.00;146328.97;4963491;28;20221;-57
2023/12/08 00:30:58;;;;;;;18.80;11.40;;;;;;;0.29;100.00;146320.34;4958564;28;20238;-53
2023/12/08 00:33:25;;;;;;;16.03;9.97;;;;;;;0.32;100.00;146325.28;4962837;28;20223;-56
2023/12/08 00:35:51;;;;;;;18.27;10.43;;;;;;;0.27;100.00;146314.16;4959897;28;20252;-53
2023/12/08 00:38:18;;;;;;;18.37;10.57;;;;;;;0.27;100.00;146314.16;4964086;28;20238;-56
2023/12/08 00:40:46;;;;;;;16.07;9.07;;;;;;;0.26;100.00;146311.66;4960733;28;20221;-56
2023/12/08 00:43:13;;;;;;;15.13;8.53;;;;;;;0.24;100.00;146307.97;4961988;28;20581;-57
2023/12/08 00:45:39;;;;;;;12.30;7.27;;;;;;;0.23;100.00;146305.50;4943621;28;20218;-57
2023/12/08 00:48:06;;;;;;;13.93;7.03;;;;;;;0.27;100.00;146315.41;4966135;28;20233;-54
2023/12/08 00:50:33;;;;;;;15.33;8.10;;;;;;;0.27;100.00;146315.41;4963542;28;20237;-55
2023/12/08 00:52:59;;;;;;;12.20;6.43;;;;;;;0.25;100.00;146310.47;4959482;28;20669;-54
2023/12/08 00:55:26;;;;;;;8.50;5.53;;;;;;;0.26;100.00;146312.94;4962733;28;20237;-53
2023/12/08 00:57:54;;;;;;;9.80;5.70;;;;;;;0.24;100.00;146307.97;4961825;28;20232;-55
2023/12/08 01:00:20;;;;;;;11.23;5.57;;;;;;;0.23;100.00;146304.25;4961351;28;20237;-56
2023/12/08 01:02:47;;;;;;;10.77;5.53;;;;;;;0.24;100.00;146307.97;4960165;28;20295;-53
2023/12/08 01:05:14;;;;;;;11.80;6.10;;;;;;;0.24;100.00;146306.72;4953506;28;20271;-57
2023/12/08 01:07:40;;;;;;;10.70;5.50;;;;;;;0.27;100.00;146314.16;4957699;28;20848;-56
2023/12/08 01:10:08;;;;;;;8.90;5.07;;;;;;;0.24;100.00;146306.72;4962261;28;20234;-53
2023/12/08 01:12:35;;;;;;;6.90;4.97;;;;;;;0.16;100.00;146286.94;4955907;28;20257;-55
2023/12/08 01:15:04;;;;;;;8.53;4.90;;;;;;;0.17;100.00;146290.69;4963006;28;20237;-56
2023/12/08 01:17:30;;;;;;;7.10;4.93;;;;;;;0.20;100.00;146298.09;4958767;28;20229;-55
2023/12/08 01:19:57;;;;;;;8.73;4.97;;;;;;;0.20;100.00;146296.84;4968931;28;20236;-55
2023/12/08 01:22:27;;;;;;;8.87;5.23;;;;;;;0.24;100.00;146307.97;4971063;28;20256;-54
2023/12/08 01:24:54;;;;;;;8.83;5.43;;;;;;;0.24;100.00;146306.72;4961419;28;20311;-55
2023/12/08 01:27:20;;;;;;;8.27;5.10;;;;;;;0.22;100.00;146301.78;4955866;28;20221;-54
2023/12/08 01:29:47;;;;;;;8.27;4.73;;;;;;;0.23;100.00;146304.25;4949700;28;20221;-54
2023/12/08 01:32:15;;;;;;;8.00;4.50;;;;;;;0.26;100.00;146311.66;4957055;28;20244;-57
2023/12/08 01:34:41;;;;;;;8.17;4.70;;;;;;;0.25;100.00;146309.19;4951382;28;20243;-56
2023/12/08 01:37:08;;;;;;;7.27;4.50;;;;;;;0.26;100.00;146312.94;4959115;28;20222;-56
2023/12/08 01:39:35;;;;;;;8.53;4.70;;;;;;;0.28;100.00;146316.63;4959281;28;20248;-56
2023/12/08 01:42:01;;;;;;;7.57;4.33;;;;;;;0.28;100.00;146317.88;4962110;28;20233;-56
2023/12/08 01:44:28;;;;;;;8.83;4.03;;;;;;;0.32;100.00;146325.28;4956534;28;20229;-56
2023/12/08 01:46:54;;;;;;;8.33;4.17;;;;;;;0.29;100.00;146320.34;4951983;28;20221;-55
2023/12/08 01:49:23;;;;;;;7.70;4.13;;;;;;;0.30;100.00;146321.56;4963016;28;20233;-57
2023/12/08 01:51:50;;;;;;;6.73;4.57;;;;;;;0.32;100.00;146326.50;4952096;28;20237;-54
2023/12/08 01:54:17;;;;;;;8.47;4.73;;;;;;;0.32;100.00;146325.28;4963476;28;20704;-55
2023/12/08 01:56:44;;;;;;;9.87;4.70;;;;;;;0.38;100.00;146341.34;4959813;28;20244;-55
2023/12/08 01:59:11;;;;;;;8.97;5.00;;;;;;;0.36;100.00;146335.19;4963138;28;20740;-56
2023/12/08 02:01:38;;;;;;;7.87;4.83;;;;;;;0.40;100.00;146345.06;4961937;28;20606;-57
2023/12/08 02:04:05;;;;;;;7.97;4.57;;;;;;;0.41;100.00;146348.75;4964359;28;20233;-54
2023/12/08 02:06:34;;;;;;;7.37;4.23;;;;;;;0.42;100.00;146351.25;4964501;28;20312;-54
2023/12/08 02:09:01;;;;;;;8.57;5.20;;;;;;;0.46;100.00;146359.91;4959695;28;20245;-55
2023/12/08 02:11:27;;;;;;;6.83;4.70;;;;;;;0.50;100.00;146368.56;4956780;28;20893;-56
2023/12/08 02:13:54;;;;;;;6.60;4.40;;;;;;;0.55;100.00;146382.13;4962692;28;20251;-54
2023/12/08 02:16:26;;;;;;;6.97;4.17;;;;;;;0.63;100.00;146400.72;4960989;28;20317;-56
2023/12/08 02:18:53;;;;;;;5.27;3.67;;;;;;;0.63;100.00;146399.44;4957110;28;20230;-56
2023/12/08 02:21:21;;;;;;;8.53;3.87;;;;;;;0.64;100.00;146401.91;4964492;28;20229;-56
2023/12/08 02:23:49;;;;;;;5.90;3.60;;;;;;;0.66;100.00;146408.13;4963129;28;20244;-55
2023/12/08 02:26:17;;;;;;;5.83;3.80;;;;;;;0.72;100.00;146421.72;4967720;28;20222;-56
2023/12/08 02:28:44;;;;;;;7.07;4.30;;;;;;;0.77;100.00;146432.88;4964252;28;20248;-53
2023/12/08 02:31:13;;;;;;;7.13;4.00;;;;;;;0.73;100.00;146424.19;4964652;28;20228;-55
2023/12/08 02:33:44;;;;;;;6.30;3.60;;;;;;;0.73;100.00;146425.44;4962596;28;20629;-56
2023/12/08 02:36:11;;;;;;;6.47;4.33;;;;;;;0.81;100.00;146443.97;4959858;28;20221;-56
2023/12/08 02:38:39;;;;;;;6.67;3.77;;;;;;;0.77;100.00;146434.06;4959154;28;20237;-56
2023/12/08 02:41:07;;;;;;;7.27;4.10;;;;;;;0.77;100.00;146432.88;4964801;28;20680;-55
2023/12/08 02:43:34;;;;;;;5.20;3.67;;;;;;;0.72;100.00;146422.97;4960473;28;20248;-56
2023/12/08 02:46:01;;;;;;;6.77;3.60;;;;;;;0.80;100.00;146441.50;4967222;28;20724;-53
2023/12/08 02:48:27;;;;;;;4.77;3.33;;;;;;;0.80;100.00;146440.28;4963588;28;20225;-56
2023/12/08 02:50:54;;;;;;;4.93;3.27;;;;;;;0.83;100.00;146448.91;4962620;28;20244;-53
2023/12/08 02:53:20;;;;;;;5.97;3.67;;;;;;;0.81;100.00;146442.75;4964029;28;20230;-55
2023/12/08 02:55:47;;;;;;;5.63;3.20;;;;;;;0.86;100.00;146455.13;4963348;28;20233;-56
2023/12/08 02:58:15;;;;;;;4.97;3.33;;;;;;;0.84;100.00;146450.19;4963151;28;20226;-56
2023/12/08 03:00:41;;;;;;;4.60;3.00;;;;;;;0.85;100.00;146453.88;4961460;28;20234;-54
2023/12/08 03:03:08;;;;;;;4.20;3.13;;;;;;;0.91;100.00;146466.25;4963189;28;20701;-53
2023/12/08 03:05:35;;;;;;;6.10;4.03;;;;;;;0.90;100.00;146463.78;4964606;28;20233;-53
2023/12/08 03:08:01;;;;;;;8.60;4.57;;;;;;;0.93;100.00;146472.44;4970299;28;20242;-56
2023/12/08 03:10:28;;;;;;;6.03;3.80;;;;;;;0.94;100.00;146473.66;4966552;28;20942;-56
2023/12/08 03:12:54;;;;;;;7.53;3.83;;;;;;;0.97;100.00;146482.34;4964585;28;20261;-56
2023/12/08 03:15:23;;;;;;;5.00;3.10;;;;;;;1.03;100.00;146497.19;4970942;28;20229;-55
2023/12/08 03:17:49;;;;;;;7.45;3.85;;;;;;;1.09;100.00;146509.53;4960482;28;20541;-56
2023/12/08 03:20:16;;;;;;;6.20;3.13;;;;;;;1.15;100.00;146524.38;4965231;28;20233;-56
2023/12/08 03:22:42;;;;;;;5.00;2.77;;;;;;;1.27;100.00;146554.06;4959721;28;20233;-55
2023/12/08 03:25:09;;;;;;;5.13;3.27;;;;;;;1.43;100.00;146591.19;4964026;28;20222;-54
2023/12/08 03:27:36;;;;;;;5.90;3.33;;;;;;;1.53;100.00;146615.94;4963102;28;20233;-56
2023/12/08 03:30:02;;;;;;;4.40;2.93;;;;;;;1.60;100.00;146633.25;4965299;28;20225;-53
2023/12/08 03:32:30;;;;;;;3.77;2.93;;;;;;;1.62;100.00;146638.22;4965092;28;20237;-53
2023/12/08 03:34:58;;;;;;;4.87;2.97;;;;;;;1.58;100.00;146628.31;4964198;28;20229;-56
2023/12/08 03:37:24;;;;;;;5.17;3.03;;;;;;;1.59;100.00;146630.78;4961188;28;20233;-56
2023/12/08 03:39:55;;;;;;;6.63;3.17;;;;;;;1.60;100.00;146633.25;4963939;28;20242;-54
2023/12/08 03:42:21;;;;;;;6.53;3.43;;;;;;;1.59;100.00;146630.78;4958153;28;20221;-54
2023/12/08 03:44:48;;;;;;;4.43;3.23;;;;;;;1.61;100.00;146635.75;4959336;28;20234;-54
2023/12/08 03:47:16;;;;;;;5.47;3.50;;;;;;;1.60;100.00;146633.25;4961003;28;20461;-56
2023/12/08 03:49:43;;;;;;;3.97;2.97;;;;;;;1.60;100.00;146633.25;4952997;28;20469;-53
2023/12/08 03:52:10;;;;;;;4.40;3.23;;;;;;;1.58;100.00;146628.31;4962268;28;20229;-53
2023/12/08 03:54:37;;;;;;;4.67;3.00;;;;;;;1.62;100.00;146638.22;4960079;28;20221;-53
2023/12/08 03:57:04;;;;;;;4.37;2.87;;;;;;;1.62;100.00;146638.22;4966738;28;20237;-56
2023/12/08 03:59:30;;;;;;;4.77;3.27;;;;;;;1.62;100.00;146638.22;4964693;28;20554;-55
2023/12/08 04:04:39;;;;;;;4.90;2.80;;;;;;;1.65;100.00;146643.16;5380230;22;20446;-56
2023/12/08 04:07:07;;;;;;;5.50;3.17;;;;;;;1.66;100.00;146645.66;4994255;28;20216;-56
2023/12/08 04:09:34;;;;;;;4.33;2.93;;;;;;;1.65;100.00;146644.38;4992862;28;20236;-56
2023/12/08 04:12:01;;;;;;;6.47;3.30;;;;;;;1.70;100.00;146656.75;5002106;28;20239;-56
2023/12/08 04:14:28;;;;;;;6.57;3.30;;;;;;;1.71;100.00;146659.22;4985307;28;20295;-57
2023/12/08 04:16:55;;;;;;;5.80;3.50;;;;;;;1.71;100.00;146659.22;4991486;23;20416;-64
2023/12/08 04:19:21;;;;;;;4.57;3.23;;;;;;;1.75;100.00;146667.94;5004895;28;20231;-64
2023/12/08 04:21:48;;;;;;;4.27;2.60;;;;;;;1.82;100.00;146685.25;5002251;28;20587;-65
2023/12/08 04:24:16;;;;;;;4.50;2.93;;;;;;;1.81;100.00;146682.78;5004603;28;20224;-64
2023/12/08 04:26:43;;;;;;;5.93;3.13;;;;;;;1.84;100.00;146688.94;5002898;28;20225;-64
2023/12/08 04:29:10;;;;;;;10.40;3.13;;;;;;;1.78;100.00;146675.34;5005883;28;20224;-64
2023/12/08 04:31:37;;;;;;;4.87;2.83;;;;;;;1.83;100.00;146687.72;5204937;22;20267;-65
2023/12/08 04:34:03;;;;;;;4.60;2.87;;;;;;;1.88;100.00;146700.09;4995017;28;20227;-62
2023/12/08 04:36:30;;;;;;;4.50;3.03;;;;;;;1.92;100.00;146708.75;5005483;28;20351;-62
2023/12/08 04:38:56;;;;;;;4.13;2.97;;;;;;;1.92;100.00;146710.00;5002271;28;20235;-62
2023/12/08 04:41:24;;;;;;;5.13;3.00;;;;;;;1.97;100.00;146721.13;5004486;28;20233;-62
2023/12/08 04:43:51;;;;;;;4.63;2.03;;;;;;;2.45;100.00;146836.28;5001332;28;20224;-62
2023/12/08 04:46:18;;;;;;;4.40;2.67;;;;;;;2.78;100.00;146915.53;5004491;28;20227;-62
2023/12/08 04:48:45;;;;;;;4.33;2.60;;;;;;;2.76;100.00;146910.59;5002555;28;20252;-62
2023/12/08 04:51:11;;;;;;;7.87;2.60;;;;;;;2.89;100.00;146941.53;5003952;28;20235;-62
2023/12/08 04:53:38;;;;;;;6.70;3.00;;;;;;;2.79;100.00;146918.03;5000009;28;20319;-62
2023/12/08 04:56:05;;;;;;;7.03;3.40;;;;;;;2.75;100.00;146908.09;5004912;28;21071;-62
2023/12/08 04:58:33;;;;;;;7.03;3.83;;;;;;;2.78;100.00;146915.53;5004813;28;20228;-62
2023/12/08 05:00:59;;;;;;;8.73;5.27;;;;;;;2.61;100.00;146873.44;5002246;28;20256;-62
2023/12/08 05:03:26;;;;;;;12.00;5.43;;;;;;;2.49;100.00;146844.97;5004403;28;20216;-62
2023/12/08 05:05:53;;;;;;;7.47;4.90;;;;;;;2.48;100.00;146843.69;5002204;28;20236;-62
2023/12/08 05:08:19;;;;;;;10.43;5.73;;;;;;;2.41;100.00;146826.34;5005060;28;20600;-62
2023/12/08 05:10:46;;;;;;;11.20;7.00;;;;;;;2.32;100.00;146805.34;5001666;28;20221;-62
2023/12/08 05:13:12;;;;;;;15.60;8.63;;;;;;;2.21;100.00;146779.31;5004585;28;20240;-62
2023/12/08 05:15:41;;;;;;;16.67;10.80;;;;;;;1.84;100.00;146688.94;5001862;28;20236;-62
2023/12/08 05:18:08;;;;;;;17.40;10.43;;;;;;;1.73;100.00;146662.97;5004452;28;20470;-62
2023/12/08 05:20:34;;;;;;;17.97;10.70;;;;;;;1.57;100.00;146624.63;5002267;28;20225;-62
2023/12/08 05:23:01;;;;;;;19.07;10.90;;;;;;;1.44;100.00;146593.66;5003839;28;20924;-62
2023/12/08 05:25:27;;;;;;;23.53;11.23;;;;;;;1.31;100.00;146562.75;4994478;28;20231;-62
2023/12/08 05:27:54;;;;;;;36.90;11.93;;;;;;;1.21;100.00;146539.22;5000454;28;20247;-62
2023/12/08 05:30:21;;;;;;;24.03;11.80;;;;;;;0.98;100.00;146484.81;5004903;28;20228;-64
2023/12/08 05:32:49;;;;;;;63.53;13.53;;;;;;;0.92;100.00;146469.97;5001391;28;20590;-64
2023/12/08 05:35:15;;;;;;;25.27;12.60;;;;;;;0.87;100.00;146457.59;5004574;28;20679;-64
2023/12/08 05:37:42;;;;;;;24.83;11.90;;;;;;;0.69;100.00;146415.53;5001434;28;20223;-64
2023/12/08 05:40:09;;;;;;;26.13;13.87;;;;;;;0.66;100.00;146406.88;5003955;28;20705;-65
2023/12/08 05:42:36;;;;;;;26.67;12.83;;;;;;;0.66;100.00;146408.13;5001735;28;20235;-65
2023/12/08 05:45:03;;;;;;;23.60;13.53;;;;;;;0.69;100.00;146414.28;5004233;28;20240;-65
2023/12/08 05:47:30;;;;;;;23.87;12.93;;;;;;;0.63;100.00;146400.72;5003747;28;20658;-65
2023/12/08 05:49:58;;;;;;;25.93;12.90;;;;;;;0.66;100.00;146408.13;4999811;28;20722;-65
2023/12/08 05:52:24;;;;;;;24.43;12.80;;;;;;;0.64;100.00;146403.19;5004224;28;20235;-65
2023/12/08 05:54:53;;;;;;;21.87;11.70;;;;;;;0.74;100.00;146426.66;5001681;28;20277;-62
2023/12/08 05:57:20;;;;;;;22.63;11.83;;;;;;;0.81;100.00;146442.75;5008466;28;20226;-62
2023/12/08 05:59:47;;;;;;;20.93;11.57;;;;;;;0.79;100.00;146437.81;5005451;28;20232;-62
2023/12/08 06:02:13;;;;;;;23.40;12.20;;;;;;;0.86;100.00;146456.34;5008377;28;20228;-62
2023/12/08 06:04:40;;;;;;;24.33;12.77;;;;;;;0.88;100.00;146461.28;5003264;28;20235;-62
2023/12/08 06:07:08;;;;;;;20.73;11.77;;;;;;;0.91;100.00;146467.50;5007028;28;20230;-62
2023/12/08 06:09:34;;;;;;;23.73;12.50;;;;;;;0.96;100.00;146478.63;5005288;28;20247;-62
2023/12/08 06:12:01;;;;;;;19.93;11.93;;;;;;;0.93;100.00;146472.44;5007743;28;20236;-62
2023/12/08 06:14:28;;;;;;;24.23;12.60;;;;;;;0.97;100.00;146482.34;5007498;28;20220;-62
2023/12/08 06:16:54;;;;;;;21.07;11.67;;;;;;;1.00;100.00;146488.50;5005316;28;20240;-62
2023/12/08 06:19:21;;;;;;;24.90;12.67;;;;;;;1.09;100.00;146509.53;5007508;28;20229;-62
2023/12/08 06:21:48;;;;;;;20.57;11.73;;;;;;;1.03;100.00;146495.94;5013237;28;20258;-62
2023/12/08 06:24:16;;;;;;;20.50;12.57;;;;;;;1.10;100.00;146512.00;5007456;28;20231;-62
2023/12/08 06:26:42;;;;;;;17.50;11.30;;;;;;;1.06;100.00;146503.34;5004775;28;20220;-62
2023/12/08 06:29:09;;;;;;;19.47;10.97;;;;;;;1.05;100.00;146500.88;5007600;28;20224;-62
2023/12/08 06:31:36;;;;;;;18.07;11.20;;;;;;;1.08;100.00;146507.03;4996356;28;20228;-62
2023/12/08 06:34:02;;;;;;;26.13;14.37;;;;;;;1.13;100.00;146520.69;5006421;28;20239;-62
2023/12/08 06:36:29;;;;;;;30.00;15.97;;;;;;;1.13;100.00;146520.69;4999424;28;20847;-62
2023/12/08 06:38:55;;;;;;;28.83;15.67;;;;;;;1.17;100.00;146529.31;5004600;28;20827;-62
2023/12/08 06:41:23;;;;;;;30.50;17.73;;;;;;;1.22;100.00;146540.47;5007054;28;20236;-62
2023/12/08 06:43:50;;;;;;;26.70;15.20;;;;;;;1.30;100.00;146561.47;5003566;28;20351;-62
2023/12/08 06:46:17;;;;;;;31.10;20.07;;;;;;;1.24;100.00;146545.41;5006206;28;20231;-62
2023/12/08 06:48:43;;;;;;;22.27;13.30;;;;;;;1.31;100.00;146563.97;5003123;28;20572;-62
2023/12/08 06:51:10;;;;;;;22.00;14.13;;;;;;;1.32;100.00;146565.22;5006782;28;20231;-62
2023/12/08 06:53:36;;;;;;;25.67;14.50;;;;;;;1.39;100.00;146581.28;5003673;28;20607;-62
2023/12/08 06:56:05;;;;;;;16.00;8.87;;;;;;;1.54;100.00;146617.19;5007181;28;20231;-62
2023/12/08 06:58:33;;;;;;;13.60;9.03;;;;;;;1.85;100.00;146691.41;5005864;28;20579;-63
2023/12/08 07:01:01;;;;;;;12.63;7.77;;;;;;;2.31;100.00;146802.84;5004856;28;20232;-62
2023/12/08 07:03:27;;;;;;;19.23;12.02;;;;;;;2.57;100.00;146863.50;5005977;28;20509;-62
2023/12/08 07:05:54;;;;;;;19.10;11.83;;;;;;;2.65;100.00;146883.34;5004467;28;21446;-62
2023/12/08 07:08:20;;;;;;;20.30;13.03;;;;;;;2.67;100.00;146888.28;5004836;28;20221;-62
2023/12/08 07:10:47;;;;;;;22.10;11.13;;;;;;;2.66;100.00;146885.81;5004213;28;20221;-62
2023/12/08 07:13:13;;;;;;;17.10;10.03;;;;;;;2.88;100.00;146937.84;5006847;28;20223;-62
2023/12/08 07:15:41;;;;;;;15.43;9.80;;;;;;;3.04;100.00;146976.22;5003760;28;20255;-62
2023/12/08 07:18:08;;;;;;;20.50;11.20;;;;;;;2.88;100.00;146939.06;5006646;28;20235;-62
2023/12/08 07:20:35;;;;;;;21.13;12.70;;;;;;;2.87;100.00;146936.56;5004489;28;20235;-62
2023/12/08 07:23:02;;;;;;;21.63;11.97;;;;;;;2.81;100.00;146921.72;5005697;28;20236;-62
2023/12/08 07:25:28;;;;;;;23.83;13.77;;;;;;;2.66;100.00;146885.81;5006337;28;20723;-62
2023/12/08 07:27:55;;;;;;;28.13;18.70;;;;;;;2.36;100.00;146815.25;4993969;28;20265;-62
2023/12/08 07:30:22;;;;;;;24.07;13.77;;;;;;;2.19;100.00;146774.34;5006048;28;20225;-62
2023/12/08 07:32:50;;;;;;;23.80;13.70;;;;;;;2.02;100.00;146733.50;4993060;28;20251;-62
2023/12/08 07:35:17;;;;;;;24.60;14.90;;;;;;;2.01;100.00;146731.03;5006330;28;20228;-62
2023/12/08 07:37:43;;;;;;;24.13;13.93;;;;;;;2.03;100.00;146736.00;5003619;28;20229;-62
2023/12/08 07:40:11;;;;;;;32.10;17.77;;;;;;;2.02;100.00;146732.28;5006442;28;20243;-62
2023/12/08 07:42:38;;;;;;;23.27;12.30;;;;;;;2.08;100.00;146745.91;5002733;28;20228;-61
2023/12/08 07:45:05;;;;;;;24.03;15.27;;;;;;;2.16;100.00;146766.91;5005654;28;20695;-62
2023/12/08 07:47:32;;;;;;;30.20;18.13;;;;;;;2.28;100.00;146795.44;5005867;28;20317;-62
2023/12/08 07:50:00;;;;;;;27.07;16.17;;;;;;;2.30;100.00;146799.13;5003911;28;20331;-62
2023/12/08 07:52:27;;;;;;;57.03;30.30;;;;;;;2.35;100.00;146812.75;5006012;28;20250;-62
2023/12/08 07:54:54;;;;;;;22.47;13.50;;;;;;;2.43;100.00;146831.31;5003275;28;20591;-64
2023/12/08 07:57:20;;;;;;;23.50;14.30;;;;;;;2.50;100.00;146847.44;5005984;28;20229;-63
2023/12/08 07:59:47;;;;;;;29.30;17.67;;;;;;;2.46;100.00;146837.53;5001651;28;20691;-62
2023/12/08 08:02:14;;;;;;;40.67;22.73;;;;;;;2.43;100.00;146830.09;5006286;28;20320;-62
2023/12/08 08:04:41;;;;;;;26.83;16.10;;;;;;;2.43;100.00;146831.31;5003298;28;20745;-62
2023/12/08 08:07:09;;;;;;;31.67;18.90;;;;;;;2.41;100.00;146825.16;5005633;28;20228;-62
2023/12/08 08:09:35;;;;;;;44.43;31.73;;;;;;;2.36;100.00;146813.97;5003356;28;20216;-62
2023/12/08 08:12:02;;;;;;;29.10;17.63;;;;;;;2.39;100.00;146821.41;5005215;28;20224;-62
2023/12/08 08:14:29;;;;;;;33.00;21.43;;;;;;;2.43;100.00;146830.09;5005393;28;20228;-62
2023/12/08 08:16:55;;;;;;;26.53;16.73;;;;;;;2.31;100.00;146801.59;5003125;28;20237;-62
2023/12/08 08:19:23;;;;;;;29.07;17.00;;;;;;;2.38;100.00;146817.72;5005477;28;20765;-62
2023/12/08 08:21:49;;;;;;;25.83;15.10;;;;;;;2.39;100.00;146820.19;4993174;28;20228;-62
2023/12/08 08:24:17;;;;;;;26.70;15.83;;;;;;;2.46;100.00;146837.53;5005387;28;20220;-62
2023/12/08 08:26:44;;;;;;;27.20;15.57;;;;;;;2.46;100.00;146838.75;4992574;28;20221;-62
2023/12/08 08:29:10;;;;;;;26.07;15.57;;;;;;;2.36;100.00;146813.97;5004907;28;20227;-62
2023/12/08 08:31:37;;;;;;;33.07;20.90;;;;;;;2.44;100.00;146833.78;4993693;28;20231;-61
2023/12/08 08:34:04;;;;;;;30.30;18.23;;;;;;;2.52;100.00;146852.41;5004773;28;20247;-62
2023/12/08 08:36:31;;;;;;;26.77;16.70;;;;;;;2.60;100.00;146870.94;5004710;28;20754;-62
2023/12/08 08:38:58;;;;;;;28.37;15.53;;;;;;;2.73;100.00;146901.88;5000556;28;20228;-62
2023/12/08 08:41:26;;;;;;;30.47;19.50;;;;;;;2.75;100.00;146906.84;5005141;28;20248;-62
2023/12/08 08:43:53;;;;;;;30.70;17.53;;;;;;;2.79;100.00;146916.75;5002665;28;20217;-62
2023/12/08 08:46:19;;;;;;;29.02;18.98;;;;;;;2.71;100.00;146896.94;5004889;28;20473;-62
2023/12/08 08:48:46;;;;;;;32.53;18.77;;;;;;;2.90;100.00;146944.00;5002733;28;20233;-62
2023/12/08 08:51:14;;;;;;;27.40;16.33;;;;;;;2.82;100.00;146924.19;5005072;28;20231;-64
2023/12/08 08:53:41;;;;;;;64.57;33.40;;;;;;;2.77;100.00;146913.06;5002600;28;20240;-64
2023/12/08 08:56:08;;;;;;;46.23;26.43;;;;;;;2.81;100.00;146921.72;5005259;28;20220;-62
2023/12/08 08:58:36;;;;;;;33.63;21.47;;;;;;;2.91;100.00;146945.28;5002045;28;20243;-62
2023/12/08 09:01:04;;;;;;;26.30;15.17;;;;;;;2.87;100.00;146936.56;5004960;28;20229;-62
2023/12/08 09:03:30;;;;;;;23.90;14.77;;;;;;;2.90;100.00;146942.78;5004955;28;20310;-62
2023/12/08 09:05:57;;;;;;;34.77;18.57;;;;;;;2.98;100.00;146961.34;5001723;28;20243;-62
2023/12/08 09:08:24;;;;;;;23.70;12.97;;;;;;;2.97;100.00;146960.13;5004842;28;20224;-62
2023/12/08 09:10:52;;;;;;;22.67;13.60;;;;;;;3.00;100.00;146966.31;5002198;28;20227;-63
2023/12/08 09:13:20;;;;;;;23.93;14.60;;;;;;;3.04;100.00;146977.50;5004447;28;20263;-62
2023/12/08 09:15:48;;;;;;;19.13;12.40;;;;;;;3.15;100.00;147002.28;5002193;28;20712;-62
2023/12/08 09:18:15;;;;;;;23.17;15.30;;;;;;;3.09;100.00;146989.88;5004362;28;20224;-62
2023/12/08 09:20:43;;;;;;;26.20;13.63;;;;;;;3.15;100.00;147002.28;5002040;28;20325;-62
2023/12/08 09:23:11;;;;;;;30.90;17.83;;;;;;;3.14;100.00;147001.00;5004105;28;20231;-64
2023/12/08 09:25:38;;;;;;;27.50;17.47;;;;;;;3.24;100.00;147025.78;5001708;28;20233;-63
2023/12/08 09:28:05;;;;;;;25.93;16.57;;;;;;;3.24;100.00;147024.53;4993305;28;20730;-63
2023/12/08 09:30:31;;;;;;;24.33;15.33;;;;;;;3.24;100.00;147024.53;4996170;28;20743;-63
2023/12/08 09:32:59;;;;;;;22.03;12.83;;;;;;;3.31;100.00;147040.66;4999772;28;20232;-63
2023/12/08 09:35:26;;;;;;;26.57;12.93;;;;;;;3.43;100.00;147070.41;5004076;28;20227;-63
2023/12/08 09:37:53;;;;;;;19.40;12.67;;;;;;;3.57;100.00;147102.63;5000558;28;20220;-63
2023/12/08 09:40:23;;;;;;;18.23;12.00;;;;;;;3.69;100.00;147132.38;5004198;28;20224;-63
2023/12/08 09:42:53;;;;;;;23.97;16.33;;;;;;;3.77;100.00;147152.16;5001657;28;20230;-63
2023/12/08 09:45:20;;;;;;;27.63;16.60;;;;;;;3.79;100.00;147157.13;5004364;28;20224;-63
2023/12/08 09:47:49;;;;;;;24.47;17.73;;;;;;;3.91;100.00;147185.66;5000599;28;20442;-63
2023/12/08 09:50:18;;;;;;;29.30;19.13;;;;;;;3.89;100.00;147179.44;5003697;28;20216;-63
2023/12/08 09:52:45;;;;;;;34.37;20.40;;;;;;;3.95;100.00;147195.59;5001641;28;20224;-63
2023/12/08 09:55:13;;;;;;;26.80;16.87;;;;;;;4.00;100.00;147206.72;5003162;28;20225;-63
2023/12/08 09:57:43;;;;;;;21.20;14.03;;;;;;;4.19;100.00;147251.34;5001440;28;20600;-63
2023/12/08 10:00:13;;;;;;;17.93;9.80;;;;;;;4.46;100.00;147317.06;5003327;28;20228;-63
2023/12/08 10:02:40;;;;;;;36.83;23.27;;;;;;;4.36;100.00;147292.25;5001601;28;20239;-63
2023/12/08 10:05:07;;;;;;;30.80;18.53;;;;;;;4.47;100.00;147318.34;5003318;28;20212;-63
2023/12/08 10:07:36;;;;;;;30.97;18.07;;;;;;;4.57;100.00;147344.34;5004539;28;20228;-63
2023/12/08 10:10:03;;;;;;;27.80;15.73;;;;;;;4.62;100.00;147354.28;5000221;28;20230;-63
2023/12/08 10:12:29;;;;;;;58.87;28.13;;;;;;;4.63;100.00;147358.03;5004433;28;20236;-63
2023/12/08 10:14:57;;;;;;;26.73;15.67;;;;;;;4.70;100.00;147375.38;5000919;28;20715;-64
2023/12/08 10:17:25;;;;;;;33.90;23.97;;;;;;;4.82;100.00;147403.91;5002903;28;20232;-64
2023/12/08 10:20:08;;;;;;;32.40;18.23;;;;;;;4.80;100.00;147398.94;4999967;28;20655;-64
2023/12/08 10:22:48;;;;;;;30.47;16.77;;;;;;;4.91;100.00;147423.75;5000537;28;20224;-64
2023/12/08 10:25:16;;;;;;;25.93;16.80;;;;;;;4.84;100.00;147407.59;5003935;28;20226;-64
2023/12/08 10:27:43;;;;;;;50.20;21.93;;;;;;;4.92;100.00;147426.22;5001392;28;20240;-64
2023/12/08 10:30:10;;;;;;;51.27;27.77;;;;;;;4.91;100.00;147423.75;5000965;28;20579;-64
2023/12/08 10:32:38;;;;;;;40.03;19.37;;;;;;;4.83;100.00;147405.13;5000621;28;20598;-64
2023/12/08 10:35:05;;;;;;;36.93;20.33;;;;;;;4.88;100.00;147418.78;5003716;28;20279;-64
2023/12/08 10:37:32;;;;;;;37.23;20.13;;;;;;;4.86;100.00;147413.81;4995997;28;20219;-64
2023/12/08 10:40:00;;;;;;;28.00;17.30;;;;;;;4.92;100.00;147427.44;4999856;28;20244;-64
2023/12/08 10:42:28;;;;;;;30.87;19.33;;;;;;;4.86;100.00;147413.81;5004448;28;20240;-64
2023/12/08 10:44:55;;;;;;;30.30;19.27;;;;;;;4.95;100.00;147434.91;5008574;23;20892;-51
2023/12/08 10:47:22;;;;;;;25.60;16.10;;;;;;;5.00;100.00;147446.09;4979976;28;20218;-53
2023/12/08 10:49:50;;;;;;;33.27;18.40;;;;;;;5.04;100.00;147456.00;4974209;28;20225;-53
2023/12/08 10:52:19;;;;;;;31.07;18.17;;;;;;;5.07;100.00;147462.19;4977943;28;20226;-51
2023/12/08 10:54:45;;;;;;;32.53;18.63;;;;;;;5.12;100.00;147474.59;4976093;28;20234;-51
2023/12/08 10:57:14;;;;;;;34.13;19.40;;;;;;;5.15;100.00;147483.31;4976337;28;20581;-55
2023/12/08 10:59:43;;;;;;;34.87;18.33;;;;;;;5.21;100.00;147495.72;4971747;28;20727;-53
2023/12/08 11:02:20;;;;;;;34.43;20.03;;;;;;;5.17;100.00;147488.28;4978369;28;20224;-51
2023/12/08 11:04:49;;;;;;;33.43;18.27;;;;;;;5.23;100.00;147501.91;4976035;28;20236;-53
2023/12/08 11:07:22;;;;;;;30.20;17.37;;;;;;;5.25;100.00;147505.66;4979801;28;20696;-51
2023/12/08 11:09:52;;;;;;;29.93;18.20;;;;;;;5.28;100.00;147513.09;4974567;28;20222;-52
2023/12/08 11:12:25;;;;;;;33.10;19.53;;;;;;;5.29;100.00;147515.56;4978060;28;20510;-52
2023/12/08 11:15:03;;;;;;;34.87;21.53;;;;;;;5.29;100.00;147515.56;4973622;28;20600;-51
2023/12/08 11:17:36;;;;;;;41.50;21.97;;;;;;;5.30;100.00;147518.06;4978204;28;20228;-53